Time;durP1;ratioP1;P1;durP2;ratioP2;P2;SDS_P1;SDS_P2;PMS_P1;PMS_P2;Temp;Humidity;BMP_temperature;BMP_pressure;BME280_temperature;BME280_humidity;BME280_pressure;Samples;Min_cycle;Max_cycle;Signal;HPM_P1;HPM_P2
2021/12/06 00:02:11;;;;;;;50.73;29.33;;;1.40;99.90;;;;;;5042614;28;20453;-80
2021/12/06 00:04:37;;;;;;;49.10;31.00;;;1.30;99.90;;;;;;5031442;28;20212;-78
2021/12/06 00:07:08;;;;;;;47.70;28.73;;;1.40;99.90;;;;;;5036816;28;20201;-79
2021/12/06 00:09:34;;;;;;;52.57;29.87;;;1.40;99.90;;;;;;5034114;28;20221;-77
2021/12/06 00:12:02;;;;;;;49.17;30.53;;;1.40;99.90;;;;;;5039720;28;20195;-77
2021/12/06 00:14:31;;;;;;;47.70;29.33;;;1.40;99.90;;;;;;5036707;28;20216;-74
2021/12/06 00:16:58;;;;;;;52.37;30.47;;;1.40;99.90;;;;;;5035135;28;20656;-74
2021/12/06 00:19:24;;;;;;;48.10;29.30;;;1.40;99.90;;;;;;5035027;28;20260;-77
2021/12/06 00:21:51;;;;;;;51.37;27.87;;;1.40;99.90;;;;;;5044412;28;20238;-75
2021/12/06 00:24:17;;;;;;;47.47;29.13;;;1.40;99.90;;;;;;5037251;28;20352;-76
2021/12/06 00:26:42;;;;;;;44.47;28.33;;;1.40;99.90;;;;;;5034261;28;20401;-77
2021/12/06 00:29:09;;;;;;;45.13;26.87;;;1.50;99.90;;;;;;5037677;28;20580;-77
2021/12/06 00:31:35;;;;;;;45.70;26.43;;;1.40;99.90;;;;;;5039799;28;20658;-82
2021/12/06 00:34:06;;;;;;;44.27;26.30;;;1.40;99.90;;;;;;5034278;28;20205;-78
2021/12/06 00:36:34;;;;;;;45.03;28.23;;;1.30;99.90;;;;;;5030350;28;20225;-76
2021/12/06 00:39:01;;;;;;;44.60;27.10;;;1.40;99.90;;;;;;5034621;28;20219;-76
2021/12/06 00:41:27;;;;;;;46.70;27.40;;;1.30;99.90;;;;;;5040278;28;20194;-75
2021/12/06 00:43:53;;;;;;;45.63;27.87;;;1.30;99.90;;;;;;5035581;28;20214;-75
2021/12/06 00:46:20;;;;;;;42.63;27.00;;;1.30;99.90;;;;;;5038607;28;20199;-77
2021/12/06 00:48:46;;;;;;;47.70;27.10;;;1.30;99.90;;;;;;5037047;28;20309;-78
2021/12/06 00:51:13;;;;;;;40.97;28.03;;;1.40;99.90;;;;;;5039295;28;20202;-78
2021/12/06 00:53:40;;;;;;;44.97;26.43;;;1.30;99.90;;;;;;5039596;28;20688;-78
2021/12/06 00:56:06;;;;;;;38.07;27.10;;;1.30;99.90;;;;;;5040756;28;20335;-78
2021/12/06 00:58:31;;;;;;;40.10;25.67;;;1.30;99.90;;;;;;5033378;28;20295;-77
2021/12/06 01:00:57;;;;;;;40.93;26.33;;;1.30;99.90;;;;;;5034528;28;20194;-75
2021/12/06 01:03:28;;;;;;;40.70;25.17;;;1.30;99.90;;;;;;5033886;28;20612;-76
2021/12/06 01:05:55;;;;;;;35.87;23.80;;;1.30;99.90;;;;;;5034759;28;20213;-77
2021/12/06 01:08:22;;;;;;;40.57;26.40;;;1.30;99.90;;;;;;5033074;28;20218;-77
2021/12/06 01:10:48;;;;;;;37.57;24.67;;;1.30;99.90;;;;;;5036400;28;20262;-76
2021/12/06 01:13:14;;;;;;;40.53;23.90;;;1.30;99.90;;;;;;5034995;28;20363;-77
2021/12/06 01:15:40;;;;;;;39.90;27.20;;;1.30;99.90;;;;;;5034954;28;20226;-77
2021/12/06 01:18:08;;;;;;;41.03;26.07;;;1.30;99.90;;;;;;5038349;28;20732;-76
2021/12/06 01:20:40;;;;;;;40.70;26.40;;;1.30;99.90;;;;;;5033448;28;20190;-82
2021/12/06 01:23:10;;;;;;;38.97;24.47;;;1.30;99.90;;;;;;5029650;28;20222;-73
2021/12/06 01:25:50;;;;;;;38.03;26.23;;;1.30;99.90;;;;;;5028469;28;20202;-63
2021/12/06 01:31:14;;;;;;;39.37;25.07;;;1.40;99.90;;;;;;5028132;28;20258;-63
2021/12/06 01:39:11;;;;;;;35.07;21.40;;;1.30;99.90;;;;;;5030773;28;20671;-63
2021/12/06 01:41:42;;;;;;;33.67;22.53;;;1.30;99.90;;;;;;5033863;28;20785;-63
2021/12/06 01:44:14;;;;;;;40.37;23.00;;;1.30;99.90;;;;;;5034071;28;20191;-63
2021/12/06 01:46:44;;;;;;;37.90;22.13;;;1.30;99.90;;;;;;5033788;28;20325;-64
2021/12/06 01:49:09;;;;;;;29.43;20.73;;;1.30;99.90;;;;;;5038103;28;20202;-63
2021/12/06 01:51:35;;;;;;;33.93;23.23;;;1.30;99.90;;;;;;5032234;28;20199;-63
2021/12/06 01:54:02;;;;;;;32.27;23.07;;;1.30;99.90;;;;;;5036371;28;20183;-64
2021/12/06 01:56:27;;;;;;;32.50;21.63;;;1.30;99.90;;;;;;5032992;28;20199;-64
2021/12/06 01:58:53;;;;;;;31.73;21.43;;;1.30;99.90;;;;;;5036846;28;20209;-63
2021/12/06 02:01:19;;;;;;;33.17;22.33;;;1.30;99.90;;;;;;5033403;28;20344;-63
2021/12/06 02:03:45;;;;;;;26.23;18.03;;;1.30;99.90;;;;;;5036390;28;20718;-64
2021/12/06 02:06:10;;;;;;;29.10;21.27;;;1.20;99.90;;;;;;5036708;28;20210;-64
2021/12/06 02:08:36;;;;;;;32.13;21.47;;;1.10;99.90;;;;;;5036730;28;20301;-65
2021/12/06 02:11:03;;;;;;;34.53;21.53;;;1.20;99.90;;;;;;5032432;28;20198;-63
2021/12/06 02:13:36;;;;;;;35.47;22.57;;;1.20;99.90;;;;;;5037120;28;20217;-63
2021/12/06 02:16:03;;;;;;;33.00;22.37;;;1.20;99.90;;;;;;5034341;28;20236;-65
2021/12/06 02:18:46;;;;;;;35.17;21.70;;;1.20;99.90;;;;;;5034416;28;20211;-64
2021/12/06 02:21:32;;;;;;;26.17;18.73;;;1.10;99.90;;;;;;5031104;28;20175;-64
2021/12/06 02:23:59;;;;;;;32.40;20.40;;;1.10;99.90;;;;;;5033110;28;20276;-64
2021/12/06 02:26:25;;;;;;;30.77;19.47;;;1.00;99.90;;;;;;5036259;28;20193;-65
2021/12/06 02:28:52;;;;;;;33.70;21.00;;;0.90;99.90;;;;;;5031507;28;20261;-64
2021/12/06 02:31:20;;;;;;;29.17;21.00;;;0.80;99.90;;;;;;5036723;28;20225;-63
2021/12/06 02:33:48;;;;;;;30.50;21.50;;;0.70;99.90;;;;;;5030146;28;20669;-64
2021/12/06 02:36:16;;;;;;;30.60;21.53;;;0.70;99.90;;;;;;5037274;28;20189;-64
2021/12/06 02:38:41;;;;;;;30.13;20.63;;;0.70;99.90;;;;;;5030717;28;20237;-64
2021/12/06 02:41:08;;;;;;;32.97;22.57;;;0.70;99.90;;;;;;5037996;28;20238;-66
2021/12/06 02:43:35;;;;;;;32.03;22.07;;;0.60;99.90;;;;;;5034788;28;20228;-65
2021/12/06 02:46:01;;;;;;;36.67;22.37;;;0.60;99.90;;;;;;5035264;28;20207;-63
2021/12/06 02:48:26;;;;;;;40.57;23.40;;;0.60;99.90;;;;;;5034942;28;20572;-63
2021/12/06 02:50:57;;;;;;;40.10;26.50;;;0.60;99.90;;;;;;5035918;28;20287;-63
2021/12/06 02:53:24;;;;;;;40.73;26.60;;;0.60;99.90;;;;;;5030903;28;20783;-63
2021/12/06 02:55:54;;;;;;;43.43;26.07;;;0.50;99.90;;;;;;5039629;28;20214;-62
2021/12/06 03:01:18;;;;;;;41.77;26.30;;;0.40;99.90;;;;;;5040556;28;20194;-69
2021/12/06 03:03:44;;;;;;;42.17;29.43;;;0.40;99.90;;;;;;5029658;28;20246;-63
2021/12/06 03:06:13;;;;;;;48.17;28.03;;;0.30;99.90;;;;;;5053931;28;20202;-64
2021/12/06 03:09:04;;;;;;;45.27;27.10;;;0.30;99.90;;;;;;5033332;28;20587;-64
2021/12/06 03:11:35;;;;;;;40.27;27.50;;;0.30;99.90;;;;;;5023951;28;20717;-63
2021/12/06 03:14:01;;;;;;;44.23;28.27;;;0.40;99.90;;;;;;5026726;28;20261;-64
2021/12/06 03:16:27;;;;;;;40.37;27.90;;;0.40;99.90;;;;;;5061338;28;20282;-64
2021/12/06 03:18:54;;;;;;;43.10;29.23;;;0.40;99.90;;;;;;5035545;28;20294;-65
2021/12/06 03:21:21;;;;;;;38.90;26.67;;;0.30;99.90;;;;;;5052876;28;20297;-64
2021/12/06 03:23:47;;;;;;;44.67;29.53;;;0.40;99.90;;;;;;5025208;28;20216;-64
2021/12/06 03:26:13;;;;;;;45.43;29.53;;;0.40;99.90;;;;;;5038773;28;20193;-64
2021/12/06 03:28:44;;;;;;;42.63;28.07;;;0.40;99.90;;;;;;5028167;28;20218;-65
2021/12/06 03:31:10;;;;;;;46.27;29.27;;;0.40;99.90;;;;;;5025999;28;20176;-65
2021/12/06 03:33:36;;;;;;;47.47;29.00;;;0.50;99.90;;;;;;5035146;28;20231;-65
2021/12/06 03:36:05;;;;;;;49.10;32.90;;;0.50;99.90;;;;;;5044993;28;20198;-65
2021/12/06 03:38:32;;;;;;;57.00;35.93;;;0.50;99.90;;;;;;5036479;28;20357;-65
2021/12/06 03:40:57;;;;;;;52.30;31.17;;;0.50;99.90;;;;;;5055136;28;20666;-65
2021/12/06 03:43:23;;;;;;;53.03;32.10;;;0.50;99.90;;;;;;5031203;28;20537;-65
2021/12/06 03:45:49;;;;;;;62.27;34.30;;;0.50;99.90;;;;;;5063509;28;20213;-66
2021/12/06 03:48:14;;;;;;;51.47;30.33;;;0.60;99.90;;;;;;5028926;28;20241;-65
2021/12/06 03:50:40;;;;;;;57.23;33.10;;;0.50;99.90;;;;;;5037934;28;20279;-64
2021/12/06 03:53:06;;;;;;;47.40;28.77;;;0.60;99.90;;;;;;5036712;28;20203;-65
2021/12/06 03:55:32;;;;;;;46.10;28.67;;;0.60;99.90;;;;;;5050277;28;20201;-64
2021/12/06 03:57:57;;;;;;;45.63;29.20;;;0.60;99.90;;;;;;5037437;28;20209;-64
2021/12/06 04:00:23;;;;;;;46.17;29.80;;;0.60;99.90;;;;;;5055739;28;20272;-64
2021/12/06 04:02:48;;;;;;;44.13;28.53;;;0.70;99.90;;;;;;5049902;28;20203;-65
2021/12/06 04:05:14;;;;;;;43.63;28.10;;;0.70;99.90;;;;;;5049928;28;20324;-65
2021/12/06 04:07:40;;;;;;;45.53;27.07;;;0.70;99.90;;;;;;5045140;28;20691;-65
2021/12/06 04:10:08;;;;;;;43.50;28.33;;;0.70;99.90;;;;;;5043360;28;20725;-64
2021/12/06 04:12:35;;;;;;;45.93;28.53;;;0.70;99.90;;;;;;5052645;28;20263;-64
2021/12/06 04:15:00;;;;;;;42.47;29.07;;;0.70;99.90;;;;;;5058999;28;20313;-65
2021/12/06 04:17:26;;;;;;;45.83;29.40;;;0.70;99.90;;;;;;5041885;28;20281;-65
2021/12/06 04:19:52;;;;;;;43.70;27.90;;;0.70;99.90;;;;;;5039255;28;20195;-65
2021/12/06 04:22:17;;;;;;;47.03;28.33;;;0.70;99.90;;;;;;5038818;28;20213;-64
2021/12/06 04:24:44;;;;;;;46.07;30.17;;;0.60;99.90;;;;;;5034345;28;20244;-65
2021/12/06 04:27:14;;;;;;;46.60;28.53;;;0.50;99.90;;;;;;5054903;28;20216;-66
2021/12/06 04:29:48;;;;;;;49.17;30.00;;;0.60;99.90;;;;;;5033208;28;20230;-66
2021/12/06 04:32:14;;;;;;;47.70;30.37;;;0.50;99.90;;;;;;5032078;28;20206;-65
2021/12/06 04:34:40;;;;;;;44.47;29.17;;;0.50;99.90;;;;;;5037456;28;20222;-65
2021/12/06 04:37:06;;;;;;;49.87;30.57;;;0.50;99.90;;;;;;5050383;28;20614;-64
2021/12/06 04:39:32;;;;;;;43.60;29.60;;;0.60;99.90;;;;;;5042709;28;20198;-65
2021/12/06 04:41:58;;;;;;;46.23;29.07;;;0.60;99.90;;;;;;5055837;28;20748;-65
2021/12/06 04:44:23;;;;;;;44.97;29.83;;;0.50;99.90;;;;;;5039130;28;20213;-65
2021/12/06 04:46:49;;;;;;;48.07;30.27;;;0.50;99.90;;;;;;5059379;28;20479;-65
2021/12/06 04:49:15;;;;;;;48.07;31.30;;;0.50;99.90;;;;;;5039853;28;20660;-65
2021/12/06 04:51:44;;;;;;;46.70;28.20;;;0.50;99.90;;;;;;5048861;28;20221;-65
2021/12/06 04:54:15;;;;;;;49.43;30.47;;;0.50;99.90;;;;;;5038202;28;20555;-64
2021/12/06 04:56:45;;;;;;;46.03;28.33;;;0.60;99.90;;;;;;5026729;28;20208;-65
2021/12/06 04:59:22;;;;;;;42.37;29.53;;;0.60;99.90;;;;;;5037110;28;20219;-65
2021/12/06 05:01:50;;;;;;;41.83;27.60;;;0.60;99.90;;;;;;5034456;28;20603;-65
2021/12/06 05:04:21;;;;;;;44.53;28.67;;;0.60;99.90;;;;;;5034880;28;20194;-65
2021/12/06 05:06:52;;;;;;;40.37;26.40;;;0.70;99.90;;;;;;5027981;28;20207;-65
2021/12/06 05:09:31;;;;;;;43.20;28.17;;;0.70;99.90;;;;;;5036975;28;20668;-65
2021/12/06 05:11:58;;;;;;;39.97;27.57;;;0.70;99.90;;;;;;5025826;28;20202;-64
2021/12/06 05:14:25;;;;;;;41.47;27.83;;;0.70;99.90;;;;;;5043592;28;20217;-64
2021/12/06 05:16:51;;;;;;;40.10;28.33;;;0.70;99.90;;;;;;5058030;28;20191;-65
2021/12/06 05:19:16;;;;;;;39.70;27.43;;;0.70;99.90;;;;;;5032156;28;20222;-65
2021/12/06 05:21:42;;;;;;;43.90;27.73;;;0.70;99.90;;;;;;5045149;28;20218;-64
2021/12/06 05:24:07;;;;;;;42.97;27.60;;;0.70;99.90;;;;;;5052993;28;20597;-66
2021/12/06 05:26:34;;;;;;;40.97;25.93;;;0.70;99.90;;;;;;5064436;28;20278;-65
2021/12/06 05:29:01;;;;;;;47.83;29.03;;;0.80;99.90;;;;;;5036040;28;20213;-65
2021/12/06 05:31:28;;;;;;;39.07;26.67;;;0.80;99.90;;;;;;5053491;28;20194;-65
2021/12/06 05:34:01;;;;;;;36.93;26.10;;;0.80;99.90;;;;;;5025139;28;20260;-65
2021/12/06 05:36:26;;;;;;;44.47;28.40;;;0.80;99.90;;;;;;5027002;28;20266;-63
2021/12/06 05:38:53;;;;;;;40.97;26.33;;;0.80;99.90;;;;;;5040648;28;20317;-63
2021/12/06 05:41:19;;;;;;;39.23;25.33;;;0.80;99.90;;;;;;5057890;28;20297;-65
2021/12/06 05:43:45;;;;;;;34.90;25.23;;;0.80;99.90;;;;;;5030415;28;20300;-65
2021/12/06 05:46:11;;;;;;;40.67;26.20;;;0.70;99.90;;;;;;5066225;28;20487;-64
2021/12/06 05:48:37;;;;;;;42.87;28.60;;;0.70;99.90;;;;;;5033844;28;20693;-66
2021/12/06 05:51:03;;;;;;;40.47;26.63;;;0.70;99.90;;;;;;5055944;28;20187;-66
2021/12/06 05:53:28;;;;;;;45.00;26.57;;;0.70;99.90;;;;;;5038316;28;20695;-64
2021/12/06 05:55:54;;;;;;;49.20;28.00;;;0.70;99.90;;;;;;5044524;28;20257;-65
2021/12/06 05:58:22;;;;;;;41.67;28.07;;;0.70;99.90;;;;;;5033475;28;20219;-65
2021/12/06 06:00:49;;;;;;;35.77;25.07;;;0.70;99.90;;;;;;5054033;28;20201;-66
2021/12/06 06:03:15;;;;;;;45.60;27.70;;;0.80;99.90;;;;;;5037282;28;20251;-64
2021/12/06 06:05:41;;;;;;;39.37;25.73;;;0.70;99.90;;;;;;5059094;28;20201;-64
2021/12/06 06:08:08;;;;;;;44.23;27.60;;;0.70;99.90;;;;;;5033921;28;20210;-64
2021/12/06 06:10:35;;;;;;;40.93;27.13;;;0.70;99.90;;;;;;5063263;28;20190;-65
2021/12/06 06:13:03;;;;;;;42.63;27.10;;;0.70;99.90;;;;;;5038372;28;20206;-65
2021/12/06 06:15:29;;;;;;;37.93;26.00;;;0.70;99.90;;;;;;5047472;28;20809;-65
2021/12/06 06:17:59;;;;;;;39.40;26.27;;;0.70;99.90;;;;;;5040301;28;20237;-65
2021/12/06 06:20:43;;;;;;;38.70;26.43;;;0.70;99.90;;;;;;5061003;28;20745;-65
2021/12/06 06:23:09;;;;;;;41.17;27.33;;;0.70;99.90;;;;;;5030212;28;20384;-66
2021/12/06 06:25:35;;;;;;;45.03;27.00;;;0.80;99.90;;;;;;5062884;28;20280;-65
2021/12/06 06:28:02;;;;;;;47.40;28.00;;;0.80;99.90;;;;;;5037562;28;20230;-64
2021/12/06 06:30:27;;;;;;;45.03;27.83;;;0.80;99.90;;;;;;5046831;28;20189;-64
2021/12/06 06:32:53;;;;;;;40.83;27.27;;;0.80;99.90;;;;;;5039804;28;20212;-64
2021/12/06 06:35:19;;;;;;;46.87;28.53;;;0.80;99.90;;;;;;5048176;28;20187;-64
2021/12/06 06:37:45;;;;;;;45.10;30.13;;;0.80;99.90;;;;;;5041538;28;20248;-65
2021/12/06 06:40:11;;;;;;;46.10;31.03;;;0.80;99.90;;;;;;5044795;28;20190;-65
2021/12/06 06:42:37;;;;;;;45.77;30.27;;;0.80;99.90;;;;;;5052693;28;20583;-65
2021/12/06 06:45:07;;;;;;;43.23;26.90;;;0.80;99.90;;;;;;5050728;28;20203;-65
2021/12/06 06:47:33;;;;;;;42.00;27.40;;;0.80;99.90;;;;;;5042874;28;20230;-66
2021/12/06 06:49:59;;;;;;;46.53;28.97;;;0.80;99.90;;;;;;5051630;28;20214;-66
2021/12/06 06:52:24;;;;;;;41.20;26.97;;;0.80;99.90;;;;;;5047104;28;20216;-65
2021/12/06 06:54:50;;;;;;;43.93;27.30;;;0.80;99.90;;;;;;5034121;28;20184;-65
2021/12/06 06:57:16;;;;;;;41.33;26.17;;;0.80;99.90;;;;;;5054476;28;20197;-64
2021/12/06 06:59:41;;;;;;;39.60;26.87;;;0.80;99.90;;;;;;5033077;28;20194;-65
2021/12/06 07:02:08;;;;;;;38.67;25.53;;;0.80;99.90;;;;;;5056425;28;20726;-64
2021/12/06 07:04:34;;;;;;;41.67;27.83;;;0.90;99.90;;;;;;5036865;28;20685;-65
2021/12/06 07:07:00;;;;;;;42.20;27.23;;;0.90;99.90;;;;;;5053212;28;20195;-65
2021/12/06 07:09:25;;;;;;;45.27;29.77;;;0.90;99.90;;;;;;5040588;28;20244;-65
2021/12/06 07:11:52;;;;;;;41.80;26.47;;;0.90;99.90;;;;;;5054070;28;20210;-64
2021/12/06 07:14:18;;;;;;;41.73;29.17;;;0.90;99.90;;;;;;5043501;28;20812;-65
2021/12/06 07:16:45;;;;;;;40.70;26.77;;;1.00;99.90;;;;;;5043253;28;20227;-64
2021/12/06 07:19:11;;;;;;;42.57;27.73;;;1.00;99.90;;;;;;5038198;28;20851;-65
2021/12/06 07:21:36;;;;;;;40.80;27.20;;;0.90;99.90;;;;;;5055531;28;20204;-65
2021/12/06 07:24:03;;;;;;;37.80;25.67;;;0.90;99.90;;;;;;5030123;28;20184;-65
2021/12/06 07:26:28;;;;;;;40.87;27.00;;;1.00;99.90;;;;;;5059238;28;20258;-65
2021/12/06 07:28:55;;;;;;;39.50;25.70;;;1.00;99.90;;;;;;5030772;28;20246;-65
2021/12/06 07:31:22;;;;;;;43.13;26.70;;;1.00;99.90;;;;;;5047502;28;20191;-63
2021/12/06 07:33:50;;;;;;;40.13;26.43;;;1.00;99.90;;;;;;5040085;28;20672;-65
2021/12/06 07:36:17;;;;;;;41.87;26.70;;;1.10;99.90;;;;;;5052595;28;20200;-66
2021/12/06 07:38:42;;;;;;;44.83;27.20;;;1.10;99.90;;;;;;5033099;28;20231;-65
2021/12/06 07:41:11;;;;;;;44.43;27.90;;;1.10;99.90;;;;;;5045465;28;20653;-65
2021/12/06 07:43:37;;;;;;;41.60;26.27;;;1.20;99.90;;;;;;5034155;28;20206;-65
2021/12/06 07:46:05;;;;;;;39.17;27.67;;;1.20;99.90;;;;;;5039170;28;20195;-64
2021/12/06 07:48:30;;;;;;;42.60;26.43;;;1.30;99.90;;;;;;5028316;28;20287;-64
2021/12/06 07:50:57;;;;;;;41.33;24.67;;;1.30;99.90;;;;;;5054941;28;20280;-65
2021/12/06 07:53:22;;;;;;;33.17;24.97;;;1.30;99.90;;;;;;5035244;28;20199;-65
2021/12/06 07:55:48;;;;;;;42.00;27.47;;;1.30;99.90;;;;;;5056556;28;20190;-65
2021/12/06 07:58:13;;;;;;;36.90;24.27;;;1.30;99.90;;;;;;5036580;28;20213;-65
2021/12/06 08:00:44;;;;;;;37.83;24.27;;;1.40;99.90;;;;;;5046340;28;20202;-64
2021/12/06 08:03:10;;;;;;;40.20;25.23;;;1.40;99.90;;;;;;5039524;28;20279;-64
2021/12/06 08:05:38;;;;;;;35.17;23.97;;;1.40;99.90;;;;;;5043066;28;20337;-63
2021/12/06 08:08:11;;;;;;;37.07;25.97;;;1.40;99.90;;;;;;5040479;28;20238;-64
2021/12/06 08:10:40;;;;;;;37.30;25.20;;;1.50;99.90;;;;;;5064451;28;20213;-64
2021/12/06 08:13:06;;;;;;;39.03;23.80;;;1.50;99.90;;;;;;5037747;28;20199;-64
2021/12/06 08:15:32;;;;;;;36.57;25.27;;;1.60;99.90;;;;;;5046346;28;20248;-64
2021/12/06 08:17:58;;;;;;;40.37;24.50;;;1.60;99.90;;;;;;5041375;28;20203;-64
2021/12/06 08:20:24;;;;;;;36.77;25.73;;;1.70;99.90;;;;;;5042257;28;20199;-63
2021/12/06 08:22:49;;;;;;;36.00;24.40;;;1.70;99.90;;;;;;5037327;28;20206;-63
2021/12/06 08:25:17;;;;;;;41.30;24.17;;;1.70;99.90;;;;;;5040396;28;20238;-64
2021/12/06 08:27:43;;;;;;;35.87;22.67;;;1.80;99.90;;;;;;5045877;28;20199;-63
2021/12/06 08:30:10;;;;;;;37.30;24.43;;;1.80;99.90;;;;;;5046062;28;20217;-63
2021/12/06 08:32:36;;;;;;;36.47;24.40;;;1.90;99.90;;;;;;5055347;28;20202;-63
2021/12/06 08:35:03;;;;;;;32.10;24.37;;;1.90;99.90;;;;;;5053540;28;20197;-65
2021/12/06 08:37:29;;;;;;;32.20;23.80;;;1.80;99.90;;;;;;5040059;28;20205;-65
2021/12/06 08:39:54;;;;;;;34.83;22.13;;;1.90;99.90;;;;;;5049426;28;20551;-65
2021/12/06 08:42:20;;;;;;;34.53;22.43;;;1.90;99.90;;;;;;5050859;28;20195;-66
2021/12/06 08:44:46;;;;;;;34.93;23.27;;;1.90;99.90;;;;;;5039136;28;20566;-66
2021/12/06 08:47:12;;;;;;;38.13;24.70;;;2.00;99.90;;;;;;5058672;28;20560;-66
2021/12/06 08:49:37;;;;;;;38.30;23.63;;;2.00;99.90;;;;;;5038721;28;20218;-66
2021/12/06 08:52:04;;;;;;;34.10;21.37;;;2.00;99.90;;;;;;5042170;28;20717;-66
2021/12/06 08:54:29;;;;;;;33.17;22.73;;;2.00;99.90;;;;;;5035930;28;20240;-66
2021/12/06 08:56:58;;;;;;;34.07;22.97;;;2.10;99.90;;;;;;5055793;28;20198;-65
2021/12/06 08:59:23;;;;;;;35.10;23.60;;;2.10;99.90;;;;;;5047876;28;20179;-65
2021/12/06 09:01:49;;;;;;;34.80;23.13;;;2.10;99.90;;;;;;5049524;28;20198;-63
2021/12/06 09:04:16;;;;;;;33.47;22.93;;;2.20;99.90;;;;;;5032116;28;20183;-63
2021/12/06 09:06:45;;;;;;;35.43;22.77;;;2.20;99.90;;;;;;5039730;28;20206;-64
2021/12/06 09:09:12;;;;;;;31.13;22.17;;;2.20;99.90;;;;;;5044191;28;20190;-64
2021/12/06 09:11:40;;;;;;;32.27;21.43;;;2.10;99.90;;;;;;5048747;28;20195;-64
2021/12/06 09:14:06;;;;;;;35.57;23.00;;;2.10;99.90;;;;;;5038179;28;20183;-64
2021/12/06 09:16:33;;;;;;;33.03;22.03;;;2.10;99.90;;;;;;5053627;28;20641;-64
2021/12/06 09:19:00;;;;;;;34.07;20.70;;;2.10;99.90;;;;;;5042263;28;20189;-65
2021/12/06 09:21:26;;;;;;;30.77;21.47;;;2.10;99.90;;;;;;5065647;28;20191;-64
2021/12/06 09:23:54;;;;;;;30.23;20.53;;;2.20;99.90;;;;;;5037706;28;20233;-65
2021/12/06 09:26:20;;;;;;;38.10;20.60;;;2.20;99.90;;;;;;5050850;28;20204;-64
2021/12/06 09:28:45;;;;;;;33.97;22.73;;;2.30;99.90;;;;;;5042280;28;20316;-67
2021/12/06 09:31:13;;;;;;;32.07;21.40;;;2.30;99.90;;;;;;5050445;28;20214;-64
2021/12/06 09:33:39;;;;;;;31.87;21.27;;;2.40;99.90;;;;;;5030111;28;20371;-64
2021/12/06 09:36:06;;;;;;;32.00;21.60;;;2.40;99.90;;;;;;5056224;28;20595;-66
2021/12/06 09:38:37;;;;;;;37.83;22.23;;;2.40;99.90;;;;;;5036779;28;20597;-66
2021/12/06 09:41:21;;;;;;;34.53;21.27;;;2.40;99.90;;;;;;5036581;28;20194;-66
2021/12/06 09:43:47;;;;;;;30.50;19.87;;;2.40;99.90;;;;;;5029109;28;20205;-66
2021/12/06 09:46:13;;;;;;;34.07;23.30;;;2.40;99.90;;;;;;5062825;28;20201;-66
2021/12/06 09:48:41;;;;;;;30.73;20.77;;;2.50;99.90;;;;;;5046288;28;20210;-65
2021/12/06 09:51:17;;;;;;;31.70;20.83;;;2.50;99.90;;;;;;5044385;28;20194;-65
2021/12/06 09:53:47;;;;;;;27.47;19.73;;;2.50;99.90;;;;;;5024796;28;20752;-64
2021/12/06 09:56:22;;;;;;;28.73;19.73;;;2.40;99.90;;;;;;5026033;28;20301;-64
2021/12/06 09:58:48;;;;;;;30.07;18.87;;;2.40;99.90;;;;;;5024539;28;20706;-65
2021/12/06 10:01:20;;;;;;;34.53;19.80;;;2.40;99.90;;;;;;5037307;28;20607;-64
2021/12/06 10:03:47;;;;;;;30.00;18.77;;;2.30;99.90;;;;;;5034218;28;20210;-65
2021/12/06 10:06:14;;;;;;;26.37;18.00;;;2.30;99.90;;;;;;5058337;28;20195;-68
2021/12/06 10:08:45;;;;;;;29.23;19.10;;;2.30;99.90;;;;;;5032731;28;20679;-65
2021/12/06 10:11:13;;;;;;;28.53;18.43;;;2.30;99.90;;;;;;5046219;28;20183;-65
2021/12/06 10:13:39;;;;;;;28.20;20.03;;;2.30;99.90;;;;;;5030346;28;20199;-64
2021/12/06 10:16:05;;;;;;;30.10;18.93;;;2.30;99.90;;;;;;5051554;28;20228;-65
2021/12/06 10:18:31;;;;;;;29.43;19.43;;;2.30;99.90;;;;;;5037536;28;20203;-65
2021/12/06 10:20:57;;;;;;;27.03;18.43;;;2.30;99.90;;;;;;5063858;28;20352;-65
2021/12/06 10:23:23;;;;;;;31.77;20.27;;;2.30;99.90;;;;;;5042665;28;20214;-64
2021/12/06 10:25:50;;;;;;;25.53;18.07;;;2.30;99.90;;;;;;5039740;28;20286;-64
2021/12/06 10:28:18;;;;;;;27.27;19.63;;;2.40;99.90;;;;;;5034582;28;20236;-64
2021/12/06 10:30:49;;;;;;;26.50;17.87;;;2.40;99.90;;;;;;5038868;28;20204;-63
2021/12/06 10:33:18;;;;;;;28.33;17.83;;;2.50;99.90;;;;;;5023756;28;20276;-74
2021/12/06 10:35:49;;;;;;;24.97;17.80;;;2.50;99.90;;;;;;5045498;28;20194;-74
2021/12/06 10:38:26;;;;;;;24.43;17.93;;;2.60;99.90;;;;;;5023757;28;20210;-74
2021/12/06 10:41:25;;;;;;;25.90;15.87;;;2.60;99.90;;;;;;5026033;28;20191;-74
2021/12/06 10:44:00;;;;;;;24.60;16.97;;;2.60;99.90;;;;;;5035212;28;20237;-74
2021/12/06 10:46:27;;;;;;;27.10;17.67;;;2.50;99.90;;;;;;5036488;28;20649;-73
2021/12/06 10:48:57;;;;;;;25.63;16.83;;;2.50;99.90;;;;;;5034857;28;20234;-72
2021/12/06 10:51:24;;;;;;;24.20;17.47;;;2.40;99.90;;;;;;5031121;28;20192;-74
2021/12/06 10:54:01;;;;;;;22.57;15.67;;;2.40;99.90;;;;;;5032832;28;20190;-73
2021/12/06 10:56:38;;;;;;;27.03;15.63;;;2.40;99.90;;;;;;5034903;28;20221;-71
2021/12/06 10:59:09;;;;;;;25.07;16.93;;;2.40;99.90;;;;;;5031067;28;20281;-73
2021/12/06 11:01:35;;;;;;;28.47;17.10;;;2.40;99.90;;;;;;5030610;28;20224;-70
2021/12/06 11:04:03;;;;;;;25.23;16.70;;;2.40;99.90;;;;;;5031884;28;20175;-71
2021/12/06 11:06:33;;;;;;;22.67;16.70;;;2.40;99.90;;;;;;5035606;28;20363;-71
2021/12/06 11:09:04;;;;;;;28.40;17.17;;;2.50;99.90;;;;;;5035548;28;20226;-72
2021/12/06 11:11:42;;;;;;;22.90;15.13;;;2.50;99.90;;;;;;5028042;28;20179;-72
2021/12/06 11:14:19;;;;;;;23.80;16.17;;;2.60;99.90;;;;;;5036748;28;20591;-73
2021/12/06 11:16:49;;;;;;;23.80;15.53;;;2.70;99.90;;;;;;5032504;28;20190;-73
2021/12/06 11:19:17;;;;;;;31.03;19.53;;;2.80;99.90;;;;;;5033379;28;20183;-73
2021/12/06 11:21:49;;;;;;;25.20;16.30;;;2.80;99.90;;;;;;5034445;28;20221;-72
2021/12/06 11:24:22;;;;;;;25.87;16.47;;;2.90;99.90;;;;;;5032163;28;20313;-72
2021/12/06 11:27:08;;;;;;;24.93;15.70;;;2.90;99.90;;;;;;5033446;28;20604;-73
2021/12/06 11:29:54;;;;;;;24.50;16.13;;;2.90;99.90;;;;;;5031256;28;20214;-73
2021/12/06 11:32:25;;;;;;;20.93;14.77;;;2.90;99.90;;;;;;5029629;28;20215;-72
2021/12/06 11:34:56;;;;;;;25.17;15.23;;;3.00;99.90;;;;;;5032195;28;20664;-73
2021/12/06 11:37:27;;;;;;;22.07;15.03;;;3.00;99.90;;;;;;5032051;28;20199;-73
2021/12/06 11:40:20;;;;;;;25.47;15.53;;;3.00;99.90;;;;;;5032758;28;20174;-73
2021/12/06 11:43:00;;;;;;;22.20;15.50;;;3.00;99.90;;;;;;5030203;28;20207;-74
2021/12/06 11:45:55;;;;;;;22.30;15.03;;;3.00;99.90;;;;;;5029961;28;20653;-71
2021/12/06 11:48:24;;;;;;;19.83;14.00;;;3.10;99.90;;;;;;5033253;28;20704;-74
2021/12/06 11:50:53;;;;;;;21.03;14.70;;;3.20;99.90;;;;;;5031742;28;20183;-74
2021/12/06 11:53:26;;;;;;;22.63;16.10;;;3.10;99.90;;;;;;5030101;28;20198;-76
2021/12/06 11:55:59;;;;;;;23.40;14.00;;;3.20;99.90;;;;;;5032135;28;20713;-71
2021/12/06 11:58:35;;;;;;;18.40;13.90;;;3.20;99.90;;;;;;5029023;28;20211;-71
2021/12/06 12:01:11;;;;;;;18.57;14.33;;;3.10;99.90;;;;;;5033825;28;20179;-71
2021/12/06 12:03:39;;;;;;;18.80;13.47;;;3.20;99.90;;;;;;5032374;28;20244;-71
2021/12/06 12:06:30;;;;;;;24.67;14.57;;;3.10;99.90;;;;;;5034388;28;20190;-72
2021/12/06 12:09:21;;;;;;;21.33;13.77;;;3.20;99.90;;;;;;5028240;28;20219;-73
2021/12/06 12:11:56;;;;;;;19.03;13.73;;;3.10;99.90;;;;;;5032834;28;20182;-75
2021/12/06 12:14:27;;;;;;;22.73;13.77;;;3.00;99.90;;;;;;5035823;28;20225;-70
2021/12/06 12:16:53;;;;;;;17.57;14.17;;;3.00;99.90;;;;;;5031834;28;20671;-76
2021/12/06 12:19:19;;;;;;;23.27;14.97;;;2.90;99.90;;;;;;5034565;28;20253;-75
2021/12/06 12:21:44;;;;;;;18.20;13.33;;;2.90;99.90;;;;;;5034573;28;20214;-71
2021/12/06 12:24:10;;;;;;;22.50;13.97;;;3.00;99.90;;;;;;5039894;28;20199;-76
2021/12/06 12:26:36;;;;;;;18.43;13.30;;;3.00;99.90;;;;;;5032903;28;20253;-72
2021/12/06 12:29:12;;;;;;;22.77;14.93;;;3.00;99.90;;;;;;5032566;28;20215;-72
2021/12/06 12:31:38;;;;;;;16.60;13.57;;;3.00;99.90;;;;;;5026313;28;20193;-73
2021/12/06 12:34:04;;;;;;;23.03;14.37;;;3.00;99.90;;;;;;5032913;28;20213;-73
2021/12/06 12:36:34;;;;;;;22.23;14.27;;;3.00;99.90;;;;;;5034284;28;20219;-73
2021/12/06 12:39:00;;;;;;;18.87;13.40;;;3.00;99.90;;;;;;5033543;28;20211;-72
2021/12/06 12:41:33;;;;;;;23.03;14.47;;;2.90;99.90;;;;;;5033765;28;20671;-76
2021/12/06 12:44:07;;;;;;;19.40;13.87;;;2.90;99.90;;;;;;5027390;28;20220;-76
2021/12/06 12:46:41;;;;;;;20.70;15.53;;;2.90;99.90;;;;;;5036639;28;20657;-74
2021/12/06 12:49:14;;;;;;;18.60;13.47;;;3.00;99.90;;;;;;5033805;28;20221;-74
2021/12/06 12:51:47;;;;;;;21.33;15.07;;;3.00;99.90;;;;;;5035638;28;20643;-72
2021/12/06 12:54:19;;;;;;;21.40;13.73;;;3.00;99.90;;;;;;5035770;28;20233;-71